Time;durP1;ratioP1;P1;durP2;ratioP2;P2;SDS_P1;SDS_P2;PMS_P1;PMS_P2;Temp;Humidity;BMP_temperature;BMP_pressure;BME280_temperature;BME280_humidity;BME280_pressure;Samples;Min_cycle;Max_cycle;Signal;HPM_P1;HPM_P2
2021/12/27 00:00:34;;;;;;;25.10;14.77;;;;;;;5.09;72.60;97176.44;10391576;28;20060;-57
2021/12/27 00:05:33;;;;;;;26.63;17.23;;;;;;;5.08;72.68;97179.84;10389554;28;20068;-58
2021/12/27 00:10:32;;;;;;;26.58;16.33;;;;;;;5.03;72.78;97190.94;10388841;28;20037;-58
2021/12/27 00:15:31;;;;;;;31.73;19.63;;;;;;;4.65;74.64;97187.03;10382930;28;20048;-58
2021/12/27 00:20:32;;;;;;;27.80;17.27;;;;;;;4.48;75.22;97194.50;10391310;28;20013;-57
2021/12/27 00:25:31;;;;;;;33.05;21.02;;;;;;;4.41;75.38;97179.84;10383686;28;20071;-57
2021/12/27 00:30:30;;;;;;;44.42;26.25;;;;;;;4.35;76.11;97191.75;10397466;28;20052;-57
2021/12/27 00:35:32;;;;;;;72.53;42.72;;;;;;;4.34;75.86;97190.00;10375861;28;20060;-57
2021/12/27 00:40:31;;;;;;;43.05;25.83;;;;;;;4.13;75.79;97181.16;10383974;28;20053;-58
2021/12/27 00:45:30;;;;;;;33.80;18.10;;;;;;;4.18;76.10;97206.91;10390978;28;20136;-58
2021/12/27 00:50:29;;;;;;;38.72;22.02;;;;;;;4.15;76.30;97211.97;10371558;28;20120;-57
2021/12/27 00:55:28;;;;;;;33.58;18.45;;;;;;;4.12;76.22;97207.66;10375887;28;20076;-58
2021/12/27 01:00:27;;;;;;;30.13;17.83;;;;;;;3.99;76.91;97226.28;10396348;28;20496;-57
2021/12/27 01:05:26;;;;;;;39.85;24.13;;;;;;;3.80;77.41;97219.97;10382026;28;20068;-57
2021/12/27 01:16:02;;;;;;;37.33;23.48;;;;;;;3.56;78.66;97253.75;10356729;28;20179;-57
2021/12/27 01:21:02;;;;;;;32.15;18.75;;;;;;;3.62;78.26;97256.44;10374376;28;20136;-58
2021/12/27 01:26:00;;;;;;;;;;;;;;;3.61;78.06;97258.16;10388574;28;20071;-58
2021/12/27 01:31:00;;;;;;;34.33;18.48;;;;;;;3.55;78.18;97250.34;10380568;28;19917;-58
2021/12/27 01:35:59;;;;;;;;;;;;;;;3.59;78.69;97262.41;10371896;28;20076;-58
2021/12/27 01:40:58;;;;;;;38.63;21.77;;;;;;;3.54;78.86;97247.72;10381968;28;19963;-58
2021/12/27 01:46:31;;;;;;;40.80;23.98;;;;;;;3.34;80.43;97255.94;10372229;28;20036;-58
2021/12/27 01:51:30;;;;;;;38.72;20.90;;;;;;;3.30;80.85;97235.31;10382118;28;20083;-58
2021/12/27 01:56:29;;;;;;;;;;;;;;;3.26;80.89;97242.09;10398738;28;20075;-58
2021/12/27 02:01:28;;;;;;;36.38;21.27;;;;;;;3.30;80.51;97243.88;10401307;28;19920;-58
2021/12/27 02:06:27;;;;;;;36.60;18.50;;;;;;;3.33;80.52;97236.25;10385135;28;20056;-57
2021/12/27 02:11:27;;;;;;;38.47;19.80;;;;;;;3.37;80.59;97237.16;10378190;28;20117;-57
2021/12/27 02:16:26;;;;;;;43.08;22.10;;;;;;;3.25;80.68;97240.38;10397236;28;20090;-57
2021/12/27 02:21:25;;;;;;;32.38;16.90;;;;;;;2.89;82.00;97240.50;10403137;28;20029;-57
2021/12/27 02:26:24;;;;;;;35.00;18.10;;;;;;;2.96;81.82;97253.47;10386769;28;20064;-57
2021/12/27 02:31:23;;;;;;;34.63;18.92;;;;;;;2.89;81.15;97223.44;10392222;28;20051;-57
2021/12/27 02:36:24;;;;;;;29.00;16.20;;;;;;;3.10;80.59;97240.09;10401047;28;20102;-57
2021/12/27 02:41:23;;;;;;;28.52;16.63;;;;;;;3.13;80.71;97245.25;10400938;28;20063;-57
2021/12/27 02:46:22;;;;;;;24.83;14.65;;;;;;;3.04;80.80;97263.00;10391793;28;20028;-57
2021/12/27 02:51:21;;;;;;;25.83;16.33;;;;;;;2.65;81.64;97254.50;10384605;28;20040;-57
2021/12/27 02:56:20;;;;;;;24.60;14.25;;;;;;;2.55;82.03;97268.78;10394396;28;20041;-57
2021/12/27 03:01:21;;;;;;;26.25;15.23;;;;;;;2.41;82.89;97267.63;10392026;28;20091;-57
2021/12/27 03:06:20;;;;;;;27.58;15.68;;;;;;;2.47;82.50;97238.75;10399213;28;20048;-57
2021/12/27 03:11:20;;;;;;;31.95;15.70;;;;;;;2.52;82.08;97222.63;10394271;28;20057;-57
2021/12/27 03:16:21;;;;;;;34.58;18.80;;;;;;;2.78;82.47;97242.84;10391751;28;20067;-57
2021/12/27 03:21:21;;;;;;;36.90;22.55;;;;;;;2.88;82.58;97254.13;10379806;28;20470;-57
2021/12/27 03:26:20;;;;;;;30.27;17.65;;;;;;;2.85;81.82;97246.38;10381850;28;20064;-57
2021/12/27 03:31:19;;;;;;;;;;;;;;;3.00;81.84;97255.28;10405577;28;20516;-57
2021/12/27 03:36:23;;;;;;;25.55;15.43;;;;;;;2.95;81.96;97261.97;10375469;28;19959;-57
2021/12/27 03:41:24;;;;;;;29.02;14.90;;;;;;;2.99;82.08;97252.66;10376511;28;20494;-57
2021/12/27 03:46:23;;;;;;;28.48;14.30;;;;;;;2.97;81.86;97244.94;10406605;28;20064;-57
2021/12/27 03:51:22;;;;;;;28.08;16.05;;;;;;;3.02;81.82;97247.59;10374990;28;20036;-57
2021/12/27 03:56:23;;;;;;;31.00;15.25;;;;;;;3.11;81.75;97249.50;10394059;28;20518;-57
2021/12/27 04:01:24;;;;;;;29.25;15.10;;;;;;;3.01;81.82;97251.88;10408901;28;20052;-57
2021/12/27 04:06:25;;;;;;;29.75;15.75;;;;;;;2.93;81.77;97247.41;10378321;28;20507;-57
2021/12/27 04:11:24;;;;;;;22.85;13.10;;;;;;;2.81;82.20;97248.00;10393892;28;20079;-57
2021/12/27 04:16:24;;;;;;;27.70;15.73;;;;;;;2.59;82.52;97249.25;10380218;28;20032;-57
2021/12/27 04:21:23;;;;;;;27.23;17.02;;;;;;;2.71;82.51;97256.34;10397312;28;20074;-57
2021/12/27 04:26:22;;;;;;;27.80;17.83;;;;;;;2.74;82.97;97252.13;10378093;28;20057;-57
2021/12/27 04:31:22;;;;;;;30.13;17.70;;;;;;;2.72;82.41;97258.06;10387739;28;20580;-57
2021/12/27 04:36:21;;;;;;;26.73;16.90;;;;;;;2.73;82.67;97264.94;10387490;28;20081;-57
2021/12/27 04:41:21;;;;;;;20.60;12.40;;;;;;;2.81;81.97;97253.13;10398057;28;20075;-57
2021/12/27 04:46:20;;;;;;;24.52;14.10;;;;;;;2.69;81.91;97250.31;10378872;28;20131;-57
2021/12/27 04:51:20;;;;;;;29.52;16.80;;;;;;;2.84;82.06;97263.47;10389548;28;20877;-57
2021/12/27 04:56:19;;;;;;;28.15;14.82;;;;;;;2.94;81.54;97250.00;10380490;28;20498;-57
2021/12/27 05:01:18;;;;;;;27.05;14.60;;;;;;;2.84;82.15;97242.97;10394723;28;20678;-57
2021/12/27 05:06:17;;;;;;;41.72;23.58;;;;;;;2.56;82.57;97257.75;10391683;28;20678;-57
2021/12/27 05:11:16;;;;;;;26.30;14.40;;;;;;;2.42;82.87;97274.50;10396168;28;20443;-57
2021/12/27 05:16:15;;;;;;;48.83;32.85;;;;;;;2.46;83.55;97267.72;10372966;28;20033;-57
2021/12/27 05:21:14;;;;;;;28.98;16.48;;;;;;;2.38;83.48;97277.81;10385916;28;20734;-57
2021/12/27 05:26:13;;;;;;;29.60;17.83;;;;;;;2.47;82.86;97264.34;10419946;28;20499;-57
2021/12/27 05:31:13;;;;;;;30.65;16.50;;;;;;;2.63;83.00;97273.22;10421814;28;20083;-57
2021/12/27 05:36:14;;;;;;;34.10;18.48;;;;;;;2.72;82.59;97276.00;10401347;28;20067;-57
2021/12/27 05:41:13;;;;;;;29.33;16.02;;;;;;;2.81;82.58;97278.75;10396000;28;20059;-57
2021/12/27 05:46:12;;;;;;;39.80;19.98;;;;;;;2.91;82.39;97285.84;10401349;28;20064;-57
2021/12/27 05:51:11;;;;;;;26.95;14.20;;;;;;;2.86;82.06;97277.16;10395287;28;20041;-59
2021/12/27 05:56:10;;;;;;;26.83;15.63;;;;;;;2.75;82.14;97276.09;10392776;28;22007;-57
2021/12/27 06:01:09;;;;;;;37.22;22.92;;;;;;;2.55;82.53;97276.47;10398242;28;20040;-57
2021/12/27 06:06:09;;;;;;;30.73;18.60;;;;;;;2.35;82.79;97250.44;10379039;28;20064;-57
2021/12/27 06:11:08;;;;;;;28.95;15.40;;;;;;;2.25;83.42;97251.03;10399861;28;20079;-57
2021/12/27 06:16:07;;;;;;;23.90;14.63;;;;;;;2.20;83.65;97267.97;10389540;28;20061;-57
2021/12/27 06:21:06;;;;;;;23.73;13.95;;;;;;;2.15;83.89;97252.50;10394503;28;20071;-57
2021/12/27 06:26:05;;;;;;;;;;;;;;;1.85;84.38;97275.66;10401268;28;20063;-57
2021/12/27 06:31:05;;;;;;;30.73;19.98;;;;;;;1.71;84.77;97275.28;10409557;28;19966;-57
2021/12/27 06:36:04;;;;;;;25.30;15.90;;;;;;;1.70;85.09;97277.84;10416141;28;20066;-57
2021/12/27 06:41:03;;;;;;;20.15;12.05;;;;;;;1.85;84.42;97267.97;10380407;28;20500;-57
2021/12/27 06:46:02;;;;;;;22.63;13.13;;;;;;;1.87;84.45;97250.97;10379461;28;20075;-57
2021/12/27 06:51:01;;;;;;;22.20;13.32;;;;;;;1.89;84.40;97245.91;10414643;28;20025;-57
2021/12/27 06:56:02;;;;;;;26.70;14.63;;;;;;;2.16;83.79;97249.16;10414554;28;20067;-57
2021/12/27 07:01:02;;;;;;;22.60;13.02;;;;;;;2.17;84.22;97245.75;10398527;28;20436;-59
2021/12/27 07:06:01;;;;;;;26.13;15.35;;;;;;;2.00;84.53;97231.69;10407873;28;20059;-57
2021/12/27 07:11:00;;;;;;;20.58;12.38;;;;;;;2.08;84.22;97227.59;10411782;28;20025;-57
2021/12/27 07:15:59;;;;;;;23.27;12.65;;;;;;;2.11;84.37;97240.50;10411483;28;20472;-57
2021/12/27 07:20:58;;;;;;;26.92;16.13;;;;;;;1.95;85.01;97240.97;10407130;28;20409;-58
2021/12/27 07:25:57;;;;;;;22.85;13.82;;;;;;;1.96;85.15;97245.22;10408350;28;20068;-57
2021/12/27 07:30:56;;;;;;;24.45;15.10;;;;;;;1.94;85.03;97234.94;10408012;28;20044;-57
2021/12/27 07:35:55;;;;;;;23.45;14.10;;;;;;;2.23;84.63;97229.69;10407296;28;20075;-58
2021/12/27 07:40:54;;;;;;;21.02;12.98;;;;;;;2.20;84.36;97250.06;10405247;28;20076;-58
2021/12/27 07:45:53;;;;;;;26.05;16.33;;;;;;;2.03;85.17;97246.25;10407154;28;20040;-58
2021/12/27 07:50:52;;;;;;;32.35;19.70;;;;;;;2.32;84.84;97232.41;10411141;28;20060;-58
2021/12/27 07:55:51;;;;;;;29.48;15.38;;;;;;;2.64;84.35;97237.41;10409099;28;20064;-57
2021/12/27 08:00:52;;;;;;;28.35;15.05;;;;;;;2.98;83.56;97240.66;10407668;28;20032;-57
2021/12/27 08:05:51;;;;;;;41.03;22.98;;;;;;;3.12;82.78;97230.69;10397445;28;20131;-57
2021/12/27 08:10:50;;;;;;;36.65;22.00;;;;;;;3.11;82.94;97234.09;10402233;28;20064;-57
2021/12/27 08:15:49;;;;;;;29.30;15.75;;;;;;;3.08;83.16;97239.19;10397384;28;20056;-57
2021/12/27 08:20:49;;;;;;;30.13;16.30;;;;;;;3.22;82.00;97248.00;10393820;28;20056;-57
2021/12/27 08:25:48;;;;;;;40.67;24.20;;;;;;;3.30;82.34;97233.63;10403045;28;20071;-57
2021/12/27 08:30:47;;;;;;;28.20;16.05;;;;;;;3.50;82.25;97220.31;10407564;28;20076;-57
2021/12/27 08:35:46;;;;;;;32.40;18.63;;;;;;;3.68;81.85;97212.94;10406779;28;20506;-57
2021/12/27 08:40:46;;;;;;;39.53;21.20;;;;;;;3.84;81.53;97217.47;10413431;28;20140;-57
2021/12/27 08:45:45;;;;;;;32.20;17.63;;;;;;;4.00;81.07;97215.19;10409052;28;20036;-57
2021/12/27 08:50:44;;;;;;;31.88;16.35;;;;;;;4.16;79.77;97204.31;10411486;28;20068;-57
2021/12/27 08:55:43;;;;;;;31.50;17.90;;;;;;;3.97;79.84;97212.56;10405240;28;20056;-57
2021/12/27 09:00:43;;;;;;;31.67;17.20;;;;;;;3.47;79.87;97149.28;10409379;28;20036;-57
2021/12/27 09:05:43;;;;;;;35.92;19.05;;;;;;;3.72;79.79;97214.72;10360551;28;20124;-58
2021/12/27 09:10:42;;;;;;;34.88;18.88;;;;;;;3.88;80.03;97190.16;10366123;28;20057;-58
2021/12/27 09:15:41;;;;;;;28.63;16.15;;;;;;;4.13;79.98;97187.97;10360461;28;20106;-58
2021/12/27 09:20:40;;;;;;;34.60;18.80;;;;;;;4.38;79.52;97153.25;10371287;28;20028;-58
2021/12/27 09:25:39;;;;;;;40.08;23.13;;;;;;;4.42;78.34;97160.16;10367541;28;20048;-58
2021/12/27 09:30:39;;;;;;;33.25;19.65;;;;;;;4.26;77.98;97138.53;10358424;28;20544;-58
2021/12/27 09:35:38;;;;;;;41.78;26.13;;;;;;;4.33;78.49;97129.22;10363102;28;20492;-58
2021/12/27 09:40:38;;;;;;;46.55;27.40;;;;;;;4.55;78.00;97126.09;10356631;28;20068;-58
2021/12/27 09:45:37;;;;;;;49.38;30.35;;;;;;;4.71;76.94;97122.84;10353976;28;20544;-58
2021/12/27 09:50:49;;;;;;;55.60;33.25;;;;;;;4.75;76.89;97120.31;10343083;28;20057;-58
2021/12/27 09:55:49;;;;;;;56.78;35.08;;;;;;;4.75;76.64;97108.31;10347898;28;20607;-58
2021/12/27 10:00:49;;;;;;;66.18;38.58;;;;;;;4.91;76.20;97099.94;10351385;28;20079;-58
2021/12/27 10:05:48;;;;;;;49.92;30.75;;;;;;;4.72;75.77;97075.72;10372876;28;20073;-58
2021/12/27 10:10:47;;;;;;;45.42;27.92;;;;;;;4.57;75.94;97090.13;10360097;28;20036;-58
2021/12/27 10:15:47;;;;;;;48.08;29.55;;;;;;;4.62;76.22;97086.78;10362202;28;20061;-58
2021/12/27 10:20:46;;;;;;;39.67;23.42;;;;;;;4.82;76.08;97075.84;10364542;28;20071;-58
2021/12/27 10:25:50;;;;;;;;;;;;;;;5.17;75.71;97071.06;10358940;28;20492;-58
2021/12/27 10:30:48;;;;;;;48.90;27.23;;;;;;;5.48;75.42;97079.06;10364085;28;19948;-58
2021/12/27 10:35:53;;;;;;;49.03;28.80;;;;;;;5.65;74.45;97079.19;10357511;28;20076;-58
2021/12/27 10:41:03;;;;;;;56.75;32.50;;;;;;;5.70;74.50;97065.50;10360406;28;20096;-58
2021/12/27 10:46:04;;;;;;;55.58;32.92;;;;;;;5.92;72.68;97069.06;10373368;28;20080;-58
2021/12/27 10:51:05;;;;;;;56.33;35.15;;;;;;;5.89;73.26;97058.78;10360004;28;20803;-58
2021/12/27 10:56:04;;;;;;;61.63;38.03;;;;;;;5.91;72.29;97071.66;10347484;28;20081;-58
2021/12/27 11:01:09;;;;;;;68.20;41.88;;;;;;;5.94;72.26;97066.53;10365744;28;20033;-58
2021/12/27 11:06:10;;;;;;;79.30;49.70;;;;;;;5.87;71.98;97069.91;10331669;28;20116;-58
2021/12/27 11:11:10;;;;;;;68.95;45.45;;;;;;;5.93;72.00;97062.19;10349618;28;20108;-58
2021/12/27 11:16:09;;;;;;;71.78;43.60;;;;;;;6.08;72.12;97048.56;10334011;28;20504;-58
2021/12/27 11:21:21;;;;;;;75.88;48.55;;;;;;;6.10;71.45;97039.16;10352320;28;20084;-58
2021/12/27 11:26:25;;;;;;;56.72;35.95;;;;;;;6.21;71.83;97029.75;10366214;28;20072;-58
2021/12/27 11:31:28;;;;;;;53.13;33.85;;;;;;;6.41;71.59;97014.38;10345157;28;20079;-58
2021/12/27 11:36:30;;;;;;;61.05;38.47;;;;;;;6.45;70.78;96982.59;10370208;28;20068;-58
2021/12/27 11:41:33;;;;;;;62.67;38.40;;;;;;;6.77;69.70;96998.16;10349727;28;20080;-58
2021/12/27 11:46:52;;;;;;;51.63;34.53;;;;;;;6.76;70.18;96983.50;10358214;28;20076;-58
2021/12/27 11:51:53;;;;;;;58.20;36.87;;;;;;;6.90;69.08;96985.25;10313971;28;20085;-58
2021/12/27 11:56:52;;;;;;;46.33;30.25;;;;;;;6.83;69.71;96974.06;10319531;28;20481;-58
2021/12/27 12:02:14;;;;;;;47.25;30.83;;;;;;;6.85;69.52;96971.50;10298572;28;20434;-59
2021/12/27 12:07:34;;;;;;;33.47;19.05;;;;;;;6.69;70.63;96976.63;10334904;28;20053;-58
2021/12/27 12:12:33;;;;;;;32.70;20.45;;;;;;;6.69;70.45;96979.22;10322630;28;20116;-58
2021/12/27 12:17:53;;;;;;;30.80;20.70;;;;;;;6.61;71.06;96989.50;10309450;28;20079;-58
2021/12/27 12:23:06;;;;;;;34.95;22.50;;;;;;;6.67;72.15;96983.50;10329111;28;20075;-58
2021/12/27 12:28:10;;;;;;;51.80;34.22;;;;;;;6.64;71.71;96978.34;10317624;28;20065;-58
2021/12/27 12:33:12;;;;;;;31.40;18.95;;;;;;;6.72;72.02;96981.78;10328658;28;20068;-58
2021/12/27 12:38:12;;;;;;;29.17;19.85;;;;;;;6.87;71.77;96983.53;10330156;28;20065;-58
2021/12/27 12:43:29;;;;;;;32.05;20.88;;;;;;;7.11;72.19;96985.28;10333946;28;20061;-58
2021/12/27 12:48:28;;;;;;;39.33;25.63;;;;;;;7.20;70.90;96967.22;10327355;28;20065;-58
2021/12/27 12:53:31;;;;;;;25.35;16.67;;;;;;;7.37;71.26;96974.09;10327231;28;20116;-58
2021/12/27 12:58:40;;;;;;;30.30;20.73;;;;;;;7.31;70.69;96956.00;10327695;28;20064;-58
2021/12/27 13:03:39;;;;;;;37.20;24.77;;;;;;;7.39;70.01;96959.47;10330981;28;20061;-58
2021/12/27 13:08:38;;;;;;;38.88;25.60;;;;;;;7.28;70.02;96962.03;10326319;28;20041;-58
2021/12/27 13:13:36;;;;;;;33.42;21.35;;;;;;;7.23;70.12;96943.97;10327749;28;20033;-58
2021/12/27 13:18:36;;;;;;;33.78;21.00;;;;;;;7.17;70.58;96956.91;10324708;28;20071;-58
2021/12/27 13:23:39;;;;;;;31.80;21.35;;;;;;;7.01;70.60;96955.19;10329874;28;20057;-58
2021/12/27 13:28:44;;;;;;;25.75;19.33;;;;;;;6.95;70.97;96970.66;10301708;28;20135;-60
2021/12/27 13:33:46;;;;;;;21.75;16.30;;;;;;;6.75;71.01;96965.44;10327827;28;20069;-58
2021/12/27 13:39:00;;;;;;;20.00;12.93;;;;;;;6.59;71.17;96965.44;10330207;28;20057;-58
2021/12/27 13:44:03;;;;;;;21.23;13.68;;;;;;;6.59;70.99;96986.06;10333590;28;20060;-58
2021/12/27 13:49:04;;;;;;;21.90;15.40;;;;;;;6.55;71.38;96999.81;10335294;28;20194;-58
2021/12/27 13:54:07;;;;;;;29.70;19.80;;;;;;;6.51;71.34;97007.50;10338717;28;20082;-58
2021/12/27 13:59:12;;;;;;;30.48;21.48;;;;;;;6.35;71.47;97016.91;10372033;28;20084;-58
2021/12/27 14:04:19;;;;;;;38.80;23.35;;;;;;;6.07;71.97;97026.22;10421035;28;20063;-58
2021/12/27 14:09:20;;;;;;;36.83;24.05;;;;;;;5.47;72.61;97029.31;10405103;28;20086;-58
2021/12/27 14:14:35;;;;;;;31.15;20.08;;;;;;;4.87;74.79;97041.59;10420395;28;20507;-58
2021/12/27 14:19:34;;;;;;;37.60;21.92;;;;;;;4.31;75.84;97048.69;10419421;28;20479;-58
2021/12/27 14:24:36;;;;;;;;;;;;;;;3.98;77.40;97061.13;10416141;28;20059;-58
2021/12/27 14:29:35;;;;;;;24.00;15.35;;;;;;;3.63;78.21;97083.69;10419661;28;19955;-58
2021/12/27 14:34:50;;;;;;;23.25;15.27;;;;;;;3.10;79.49;97092.25;10419057;28;20043;-58
2021/12/27 14:39:50;;;;;;;23.88;15.48;;;;;;;2.69;81.72;97088.94;10413212;28;20056;-58
2021/12/27 14:44:50;;;;;;;20.95;12.60;;;;;;;2.53;82.88;97092.88;10419785;28;20055;-58
2021/12/27 14:49:50;;;;;;;30.27;17.95;;;;;;;2.64;82.16;97111.03;10416244;28;20064;-58
2021/12/27 14:54:49;;;;;;;44.97;27.67;;;;;;;2.69;82.24;97114.53;10417809;28;20049;-58
2021/12/27 14:59:48;;;;;;;40.97;22.80;;;;;;;2.65;82.11;97120.44;10417525;28;20071;-58
2021/12/27 15:04:47;;;;;;;22.17;14.38;;;;;;;2.58;82.79;97117.78;10416577;28;20040;-58
2021/12/27 15:09:47;;;;;;;26.30;15.07;;;;;;;2.64;82.80;97118.72;10418444;28;20040;-58
2021/12/27 15:14:46;;;;;;;;;;;;;;;2.64;82.73;97126.41;10418186;28;20067;-58
2021/12/27 15:19:44;;;;;;;18.70;11.77;;;;;;;2.44;83.32;97138.78;10412519;28;19994;-58
2021/12/27 15:24:44;;;;;;;21.17;12.55;;;;;;;2.02;84.65;97137.03;10402624;28;20136;-58
2021/12/27 15:29:44;;;;;;;38.33;23.17;;;;;;;1.92;85.24;97144.50;10414584;28;20095;-58
2021/12/27 15:34:43;;;;;;;28.42;16.17;;;;;;;2.13;84.79;97143.25;10416144;28;20072;-58
2021/12/27 15:39:42;;;;;;;33.33;20.30;;;;;;;2.18;84.73;97157.00;10417246;28;20094;-58
2021/12/27 15:44:41;;;;;;;24.38;14.00;;;;;;;2.31;84.03;97147.91;10415473;28;20759;-58
2021/12/27 15:49:40;;;;;;;26.42;15.77;;;;;;;2.41;83.58;97160.06;10412062;28;20028;-58
2021/12/27 15:54:39;;;;;;;28.65;16.15;;;;;;;2.67;83.58;97163.16;10416222;28;20056;-58
2021/12/27 15:59:38;;;;;;;27.63;16.60;;;;;;;2.89;82.87;97159.34;10402257;28;20032;-58
2021/12/27 16:04:37;;;;;;;28.27;15.50;;;;;;;3.07;82.47;97153.69;10412783;28;20064;-58
2021/12/27 16:09:36;;;;;;;28.38;16.45;;;;;;;3.25;83.05;97150.63;10410418;28;20024;-58
2021/12/27 16:14:35;;;;;;;27.20;15.35;;;;;;;3.34;82.40;97147.38;10413070;28;20021;-58
2021/12/27 16:19:34;;;;;;;24.98;14.95;;;;;;;3.33;82.54;97136.25;10408663;28;20075;-58
2021/12/27 16:24:40;;;;;;;25.55;16.40;;;;;;;3.34;82.25;97153.34;10411190;28;20471;-58
2021/12/27 16:29:39;;;;;;;57.88;37.75;;;;;;;3.00;83.28;97156.97;10406837;28;20076;-58
2021/12/27 16:34:38;;;;;;;28.60;17.13;;;;;;;2.79;83.68;97160.88;10413254;28;20133;-58
2021/12/27 16:39:37;;;;;;;38.60;26.95;;;;;;;2.59;84.02;97170.72;10414327;28;20032;-58
2021/12/27 16:44:40;;;;;;;29.35;16.92;;;;;;;2.58;84.40;97169.00;10413440;28;20059;-58
2021/12/27 16:49:39;;;;;;;26.27;15.90;;;;;;;2.66;83.90;97174.28;10403014;28;20068;-58
2021/12/27 16:54:38;;;;;;;24.77;15.60;;;;;;;2.75;84.18;97166.78;10398622;28;20032;-58
2021/12/27 16:59:37;;;;;;;28.05;15.90;;;;;;;2.90;84.15;97171.31;10402094;28;20477;-58
2021/12/27 17:04:37;;;;;;;23.15;13.50;;;;;;;2.99;83.84;97166.38;10397250;28;20127;-58
2021/12/27 17:09:36;;;;;;;24.88;13.77;;;;;;;2.83;83.94;97123.34;10414987;28;20060;-58
2021/12/27 17:14:35;;;;;;;28.05;16.60;;;;;;;3.09;83.57;97164.84;10400573;28;20110;-59
2021/12/27 17:19:34;;;;;;;33.28;19.05;;;;;;;3.00;83.34;97173.25;10406334;28;20479;-58
2021/12/27 17:24:33;;;;;;;33.28;19.15;;;;;;;2.52;83.69;97122.75;10415301;28;20387;-59
2021/12/27 17:29:33;;;;;;;48.53;25.23;;;;;;;2.66;84.22;97161.47;10421003;28;20083;-59
2021/12/27 17:34:37;;;;;;;33.95;19.40;;;;;;;2.53;84.64;97155.19;10414458;28;20083;-58
2021/12/27 17:39:37;;;;;;;35.47;20.10;;;;;;;2.48;84.94;97164.50;10416364;28;20060;-58
2021/12/27 17:44:36;;;;;;;28.02;14.82;;;;;;;2.31;85.45;97163.28;10406186;28;20064;-58
2021/12/27 17:49:36;;;;;;;29.92;15.50;;;;;;;2.39;85.16;97174.53;10401631;28;20151;-58
2021/12/27 17:54:36;;;;;;;27.35;13.95;;;;;;;2.32;85.45;97175.22;10411033;28;20068;-58
2021/12/27 17:59:35;;;;;;;32.45;19.10;;;;;;;2.16;86.05;97168.91;10418618;28;20056;-58
2021/12/27 18:04:34;;;;;;;29.65;16.42;;;;;;;2.25;85.65;97158.00;10418423;28;20048;-58
2021/12/27 18:09:35;;;;;;;34.38;18.38;;;;;;;2.20;85.73;97160.47;10418612;28;20416;-58
2021/12/27 18:14:34;;;;;;;33.60;19.70;;;;;;;2.40;85.44;97157.50;10416028;28;20048;-58
2021/12/27 18:19:33;;;;;;;;;;;;;;;2.50;85.37;97170.50;10416105;28;20123;-58
2021/12/27 18:24:32;;;;;;;36.47;20.90;;;;;;;2.68;85.38;97164.06;10418739;28;19912;-58
2021/12/27 18:29:37;;;;;;;45.60;25.73;;;;;;;2.76;85.29;97157.38;10417781;28;20826;-58
2021/12/27 18:34:36;;;;;;;29.67;16.60;;;;;;;2.81;85.36;97172.00;10413099;28;20179;-58
2021/12/27 18:39:35;;;;;;;28.08;15.60;;;;;;;2.90;85.11;97165.34;10415157;28;20449;-58
2021/12/27 18:44:33;;;;;;;49.20;31.38;;;;;;;2.92;85.48;97153.44;10416936;28;20021;-58
2021/12/27 18:49:33;;;;;;;32.83;16.35;;;;;;;2.87;85.54;97168.72;10413549;28;20032;-58
2021/12/27 18:54:32;;;;;;;40.22;25.02;;;;;;;2.75;85.55;97176.16;10416331;28;20451;-58
2021/12/27 18:59:31;;;;;;;116.78;81.43;;;;;;;2.69;85.64;97181.16;10414343;28;20064;-58
2021/12/27 19:04:30;;;;;;;27.80;13.88;;;;;;;2.63;85.83;97171.66;10416077;28;20056;-58
2021/12/27 19:09:29;;;;;;;;;;;;;;;2.42;85.53;97201.91;10415048;28;20056;-58
2021/12/27 19:14:28;;;;;;;37.88;20.20;;;;;;;2.12;86.86;97187.59;10416813;28;19912;-58
2021/12/27 19:19:27;;;;;;;32.00;18.52;;;;;;;2.12;86.92;97191.03;10411695;28;20403;-58
2021/12/27 19:24:26;;;;;;;30.95;18.13;;;;;;;2.10;86.96;97195.25;10412706;28;20152;-58
2021/12/27 19:29:26;;;;;;;32.08;18.42;;;;;;;2.08;86.81;97180.69;10414011;28;20644;-58
2021/12/27 19:34:25;;;;;;;40.75;23.40;;;;;;;2.08;87.03;97191.78;10413445;28;20074;-58
2021/12/27 19:39:28;;;;;;;33.85;17.85;;;;;;;1.97;87.23;97213.69;10410741;28;20115;-58
2021/12/27 19:44:31;;;;;;;31.42;16.95;;;;;;;1.74;87.78;97203.78;10405462;28;20139;-58
2021/12/27 19:49:30;;;;;;;33.72;19.92;;;;;;;1.67;87.88;97209.56;10409512;28;20059;-58
2021/12/27 19:54:29;;;;;;;34.72;17.00;;;;;;;1.75;88.11;97215.72;10413691;28;20060;-58
2021/12/27 19:59:29;;;;;;;30.75;17.40;;;;;;;1.73;88.29;97209.69;10412597;28;20027;-58
2021/12/27 20:04:29;;;;;;;35.53;17.00;;;;;;;1.88;88.36;97210.91;10409322;28;20123;-58
2021/12/27 20:09:28;;;;;;;;;;;;;;;2.06;87.70;97202.81;10410596;28;20139;-58
2021/12/27 20:14:28;;;;;;;34.58;18.25;;;;;;;2.11;87.71;97180.75;10413170;28;20287;-58
2021/12/27 20:19:27;;;;;;;42.00;21.58;;;;;;;2.15;87.67;97162.94;10408188;28;20068;-58
2021/12/27 20:24:26;;;;;;;50.17;27.73;;;;;;;2.13;88.26;97187.63;10403234;28;20043;-58
2021/12/27 20:29:26;;;;;;;45.95;27.67;;;;;;;1.90;87.96;97197.34;10409892;28;20045;-58
2021/12/27 20:34:25;;;;;;;29.50;16.38;;;;;;;1.89;88.48;97192.19;10411086;28;20114;-58
2021/12/27 20:39:24;;;;;;;31.58;17.67;;;;;;;1.89;88.33;97198.16;10407295;28;20732;-58
2021/12/27 20:44:28;;;;;;;34.05;20.10;;;;;;;1.52;87.94;97142.69;10412064;28;20056;-58
2021/12/27 20:49:27;;;;;;;47.47;27.55;;;;;;;1.83;88.32;97202.25;10405205;28;20052;-58
2021/12/27 20:54:27;;;;;;;31.80;18.63;;;;;;;1.90;88.58;97222.03;10406292;28;20543;-58
2021/12/27 20:59:26;;;;;;;31.23;15.23;;;;;;;2.02;88.39;97201.00;10407169;28;20064;-58
2021/12/27 21:04:26;;;;;;;33.45;17.52;;;;;;;1.98;88.68;97223.09;10408816;28;20561;-58
2021/12/27 21:09:26;;;;;;;25.38;13.25;;;;;;;2.05;87.90;97201.94;10408725;28;20079;-58
2021/12/27 21:14:25;;;;;;;55.33;32.45;;;;;;;2.15;88.19;97218.38;10408298;28;20129;-58
2021/12/27 21:19:24;;;;;;;34.30;16.88;;;;;;;1.93;88.04;97223.00;10409086;28;20079;-58
2021/12/27 21:24:23;;;;;;;34.03;18.50;;;;;;;1.67;88.38;97219.78;10404790;28;20021;-58
2021/12/27 21:29:22;;;;;;;34.20;18.13;;;;;;;1.68;88.52;97223.22;10410688;28;20052;-58
2021/12/27 21:34:21;;;;;;;25.08;14.27;;;;;;;1.70;88.62;97224.13;10409975;28;20044;-58
2021/12/27 21:39:20;;;;;;;30.05;16.80;;;;;;;1.70;88.35;97224.97;10406408;28;20506;-58
2021/12/27 21:44:19;;;;;;;;;;;;;;;1.65;88.23;97231.69;10408439;28;20141;-58
2021/12/27 21:49:18;;;;;;;25.52;13.93;;;;;;;1.55;88.45;97234.81;10403455;28;19962;-58
2021/12/27 21:54:17;;;;;;;22.30;11.98;;;;;;;1.46;88.43;97216.69;10408815;28;20028;-58
2021/12/27 21:59:16;;;;;;;24.20;11.30;;;;;;;1.42;88.87;97225.97;10406484;28;20115;-58
2021/12/27 22:04:15;;;;;;;31.67;15.48;;;;;;;1.44;88.52;97223.47;10410476;28;20055;-58
2021/12/27 22:09:14;;;;;;;26.92;13.48;;;;;;;1.53;88.41;97218.59;10412889;28;20082;-58
2021/12/27 22:14:13;;;;;;;26.60;14.32;;;;;;;1.66;87.88;97220.59;10412662;28;20832;-58
2021/12/27 22:19:12;;;;;;;20.95;10.95;;;;;;;1.39;88.49;97202.00;10411215;28;20115;-57
2021/12/27 22:24:11;;;;;;;26.23;12.52;;;;;;;1.61;87.67;97213.66;10415322;28;20063;-58
2021/12/27 22:29:10;;;;;;;29.75;13.95;;;;;;;1.76;87.98;97219.13;10413223;28;20044;-59
2021/12/27 22:34:10;;;;;;;25.98;13.57;;;;;;;1.72;88.00;97213.09;10413892;28;20032;-57
2021/12/27 22:39:09;;;;;;;24.63;11.80;;;;;;;1.49;88.30;97215.06;10416524;28;20487;-57
2021/12/27 22:44:08;;;;;;;23.45;12.15;;;;;;;1.24;88.57;97203.31;10416207;28;20103;-57
2021/12/27 22:49:07;;;;;;;25.98;13.57;;;;;;;1.46;88.25;97212.44;10410581;28;20535;-57
2021/12/27 22:54:06;;;;;;;38.58;18.45;;;;;;;1.56;88.08;97199.91;10411613;28;20039;-57
2021/12/27 22:59:05;;;;;;;30.67;16.55;;;;;;;1.62;88.12;97195.81;10413548;28;20029;-57
2021/12/27 23:04:05;;;;;;;27.33;14.77;;;;;;;1.64;87.89;97200.94;10399701;28;20144;-57
2021/12/27 23:09:04;;;;;;;26.92;12.88;;;;;;;1.64;87.59;97199.25;10417797;28;20095;-57
2021/12/27 23:14:03;;;;;;;25.92;14.30;;;;;;;1.62;87.91;97198.38;10389636;28;20120;-57